createdAt,value
2019-05-22T00:01:17.169Z,6.40
2019-05-22T00:03:53.676Z,6.50
2019-05-22T00:06:26.764Z,6.22
2019-05-22T00:08:58.744Z,6.35
2019-05-22T00:11:30.188Z,5.83
2019-05-22T00:14:02.901Z,5.97
2019-05-22T00:16:35.226Z,5.85
2019-05-22T00:19:06.803Z,6.95
2019-05-22T00:21:40.379Z,6.47
2019-05-22T00:24:12.859Z,6.58
2019-05-22T00:26:45.090Z,6.65
2019-05-22T00:29:18.464Z,7.15
2019-05-22T00:31:51.056Z,6.80
2019-05-22T00:34:24.201Z,6.75
2019-05-22T00:36:56.715Z,6.65
2019-05-22T00:39:30.707Z,6.37
2019-05-22T00:42:02.186Z,6.47
2019-05-22T00:44:34.139Z,6.83
2019-05-22T00:47:07.405Z,6.50
2019-05-22T00:49:40.650Z,5.67
2019-05-22T00:52:23.952Z,5.62
2019-05-22T00:55:01.054Z,5.45
2019-05-22T00:57:35.276Z,5.65
2019-05-22T01:00:20.347Z,5.12
2019-05-22T01:02:56.638Z,5.30
2019-05-22T01:05:29.643Z,4.67
2019-05-22T01:08:02.661Z,4.65
2019-05-22T01:10:35.421Z,4.90
2019-05-22T01:13:07.743Z,5.20
2019-05-22T01:15:40.880Z,5.12
2019-05-22T01:18:15.251Z,4.87
2019-05-22T01:20:49.159Z,5.08
2019-05-22T01:23:23.474Z,4.80
2019-05-22T01:25:55.656Z,5.72
2019-05-22T01:28:27.939Z,5.70
2019-05-22T01:31:04.841Z,6.75
2019-05-22T01:33:41.767Z,6.17
2019-05-22T01:36:15.038Z,6.30
2019-05-22T01:38:48.674Z,6.75
2019-05-22T01:41:28.991Z,7.00
2019-05-22T01:44:03.782Z,7.12
2019-05-22T01:46:36.912Z,6.80
2019-05-22T01:49:12.066Z,6.80
2019-05-22T01:51:45.815Z,6.28
2019-05-22T01:54:19.146Z,6.28
2019-05-22T01:56:51.622Z,6.62
2019-05-22T01:59:23.482Z,6.65
2019-05-22T02:01:57.817Z,6.08
2019-05-22T02:04:30.648Z,5.90
2019-05-22T02:07:04.008Z,5.85
2019-05-22T02:09:38.012Z,5.90
2019-05-22T02:12:18.225Z,6.17
2019-05-22T02:14:53.056Z,6.22
2019-05-22T02:17:31.718Z,5.90
2019-05-22T02:20:06.785Z,6.45
2019-05-22T02:22:40.753Z,5.70
2019-05-22T02:25:13.002Z,5.83
2019-05-22T02:27:46.392Z,5.37
2019-05-22T02:30:18.952Z,5.87
2019-05-22T02:32:52.709Z,5.90
2019-05-22T02:35:25.563Z,5.40
2019-05-22T02:37:57.362Z,5.67
2019-05-22T02:40:33.369Z,5.65
2019-05-22T02:43:06.970Z,5.90
2019-05-22T02:45:38.437Z,5.67
2019-05-22T02:48:11.307Z,5.40
2019-05-22T02:50:42.733Z,5.45
2019-05-22T02:53:15.045Z,5.25
2019-05-22T02:55:47.652Z,6.28
2019-05-22T02:58:21.174Z,5.80
2019-05-22T03:01:02.848Z,6.45
2019-05-22T03:03:35.416Z,5.58
2019-05-22T03:06:12.483Z,5.78
2019-05-22T03:08:59.694Z,5.62
2019-05-22T03:11:37.452Z,5.40
2019-05-22T03:14:10.845Z,5.60
2019-05-22T03:17:00.643Z,5.80
2019-05-22T03:19:45.613Z,6.70
2019-05-22T03:22:24.410Z,6.80
2019-05-22T03:24:58.243Z,6.37
2019-05-22T03:27:44.666Z,7.35
2019-05-22T03:30:22.495Z,7.78
2019-05-22T03:32:56.677Z,6.90
2019-05-22T03:35:30.983Z,7.00
2019-05-22T03:38:03.904Z,6.00
2019-05-22T03:40:37.262Z,5.30
2019-05-22T03:43:20.853Z,6.67
2019-05-22T03:45:56.526Z,7.45
2019-05-22T03:48:30.803Z,14.83
2019-05-22T03:51:14.197Z,10.25
2019-05-22T03:53:47.954Z,10.35
2019-05-22T03:56:22.035Z,9.58
2019-05-22T03:58:55.360Z,9.00
2019-05-22T04:01:26.791Z,7.97
2019-05-22T04:03:59.663Z,7.45
2019-05-22T04:06:32.883Z,6.17
2019-05-22T04:09:11.415Z,6.47
2019-05-22T04:11:46.561Z,6.35
2019-05-22T04:14:19.534Z,7.25
2019-05-22T04:16:51.910Z,6.67
2019-05-22T04:19:23.389Z,7.08
2019-05-22T04:21:56.165Z,7.08
2019-05-22T04:24:27.907Z,7.08
2019-05-22T04:27:01.307Z,7.40
2019-05-22T04:29:32.618Z,12.93
2019-05-22T04:32:15.516Z,7.17
2019-05-22T04:34:48.707Z,7.65
2019-05-22T04:37:20.135Z,7.35
2019-05-22T04:39:54.577Z,7.87
2019-05-22T04:42:29.323Z,7.87
2019-05-22T04:45:10.191Z,8.38
2019-05-22T04:47:44.909Z,10.85
2019-05-22T04:50:17.958Z,10.98
2019-05-22T04:52:50.613Z,10.68
2019-05-22T04:55:24.617Z,11.55
2019-05-22T04:57:57.423Z,11.75
2019-05-22T05:00:30.230Z,12.00
2019-05-22T05:03:02.426Z,12.18
2019-05-22T05:05:45.776Z,12.82
2019-05-22T05:08:18.158Z,13.43
2019-05-22T05:10:51.088Z,13.88
2019-05-22T05:13:23.889Z,14.23
2019-05-22T05:15:55.435Z,13.95
2019-05-22T05:18:27.562Z,14.53
2019-05-22T05:20:58.978Z,15.43
2019-05-22T05:23:30.366Z,16.90
2019-05-22T05:26:02.040Z,15.38
2019-05-22T05:28:33.601Z,16.67
2019-05-22T05:31:05.120Z,17.48
2019-05-22T05:33:48.931Z,16.65
2019-05-22T05:36:21.813Z,17.32
2019-05-22T05:38:54.884Z,19.15
2019-05-22T05:41:28.533Z,17.15
2019-05-22T05:44:00.805Z,17.85
2019-05-22T05:46:32.216Z,18.02
2019-05-22T05:49:04.393Z,18.20
2019-05-22T05:51:38.205Z,16.10
2019-05-22T05:54:12.899Z,18.07
2019-05-22T05:56:49.093Z,17.60
2019-05-22T05:59:22.058Z,18.37
2019-05-22T06:01:54.836Z,16.40
2019-05-22T06:04:34.630Z,18.27
2019-05-22T06:07:17.723Z,16.32
2019-05-22T06:09:51.749Z,17.90
2019-05-22T06:12:23.317Z,17.48
2019-05-22T06:14:57.028Z,15.65
2019-05-22T06:17:59.702Z,16.87
2019-05-22T06:20:31.477Z,18.70
2019-05-22T06:23:27.393Z,16.97
2019-05-22T06:25:59.409Z,18.10
2019-05-22T06:28:38.196Z,15.35
2019-05-22T06:31:14.680Z,17.00
2019-05-22T06:33:46.970Z,18.57
2019-05-22T06:36:18.800Z,18.40
2019-05-22T06:38:55.801Z,18.25
2019-05-22T06:41:29.447Z,20.32
2019-05-22T06:44:30.712Z,20.55
2019-05-22T06:47:03.088Z,20.37
2019-05-22T06:49:39.191Z,22.27
2019-05-22T06:52:11.450Z,20.25
2019-05-22T06:54:43.744Z,21.05
2019-05-22T06:57:17.153Z,19.87
2019-05-22T07:00:10.834Z,20.80
2019-05-22T07:02:23.798Z,20.50
2019-05-22T07:04:55.938Z,22.70
2019-05-22T07:07:27.685Z,26.80
2019-05-22T07:09:59.493Z,31.20
2019-05-22T07:12:34.925Z,32.70
2019-05-22T07:15:10.877Z,36.85
2019-05-22T07:17:42.523Z,36.90
2019-05-22T07:20:15.720Z,42.08
2019-05-22T07:22:47.640Z,49.67
2019-05-22T07:25:20.368Z,60.23
2019-05-22T07:27:51.839Z,58.38
2019-05-22T07:30:23.456Z,57.03
2019-05-22T07:33:14.583Z,46.23
2019-05-22T07:36:07.679Z,35.70
2019-05-22T07:38:20.218Z,28.90
2019-05-22T07:40:53.093Z,28.47
2019-05-22T07:43:24.566Z,24.47
2019-05-22T07:45:57.998Z,24.95
2019-05-22T07:48:31.127Z,25.37
2019-05-22T07:51:04.090Z,24.02
2019-05-22T07:53:35.700Z,22.87
2019-05-22T07:56:10.245Z,23.22
2019-05-22T07:58:44.711Z,20.55
2019-05-22T08:01:18.118Z,20.23
2019-05-22T08:03:50.295Z,18.60
2019-05-22T08:06:22.465Z,16.93
2019-05-22T08:08:54.600Z,14.50
2019-05-22T08:11:26.324Z,13.80
2019-05-22T08:13:58.247Z,13.62
2019-05-22T08:16:29.717Z,13.20
2019-05-22T08:19:02.424Z,13.53
2019-05-22T08:21:34.134Z,13.60
2019-05-22T08:24:05.869Z,13.93
2019-05-22T08:26:53.188Z,13.53
2019-05-22T08:29:12.405Z,14.03
2019-05-22T08:31:44.468Z,14.40
2019-05-22T08:34:16.574Z,16.80
2019-05-22T08:36:49.413Z,17.73
2019-05-22T08:39:21.590Z,17.95
2019-05-22T08:41:54.059Z,17.05
2019-05-22T08:44:28.690Z,18.05
2019-05-22T08:47:01.196Z,19.75
2019-05-22T08:49:33.112Z,18.75
2019-05-22T08:52:22.155Z,17.48
2019-05-22T08:54:39.969Z,18.05
2019-05-22T08:57:12.574Z,15.65
2019-05-22T08:59:44.597Z,13.18
2019-05-22T09:02:17.244Z,14.93
2019-05-22T09:04:49.838Z,12.20
2019-05-22T09:07:21.599Z,11.48
2019-05-22T09:09:53.096Z,10.82
2019-05-22T09:12:26.365Z,10.32
2019-05-22T09:14:57.969Z,10.58
2019-05-22T09:17:29.967Z,10.48
2019-05-22T09:20:01.772Z,9.63
2019-05-22T09:22:40.519Z,9.58
2019-05-22T09:25:11.606Z,8.83
2019-05-22T09:27:43.219Z,8.88
2019-05-22T09:30:15.194Z,8.75
2019-05-22T09:32:47.664Z,13.80
2019-05-22T09:35:20.484Z,8.98
2019-05-22T09:37:51.856Z,8.10
2019-05-22T09:40:23.323Z,8.13
2019-05-22T09:42:54.826Z,7.60
2019-05-22T09:45:26.265Z,7.70
2019-05-22T09:47:58.043Z,7.40
2019-05-22T09:50:30.315Z,8.20
2019-05-22T09:53:02.061Z,7.50
2019-05-22T09:55:33.720Z,8.13
2019-05-22T09:58:05.909Z,8.38
2019-05-22T10:00:38.142Z,8.15
2019-05-22T10:03:09.756Z,20.00
2019-05-22T10:05:41.487Z,8.65
2019-05-22T10:08:12.789Z,7.90
2019-05-22T10:10:44.677Z,7.50
2019-05-22T10:13:16.144Z,7.42
2019-05-22T10:15:47.519Z,6.50
2019-05-22T10:18:18.887Z,6.85
2019-05-22T10:20:50.422Z,6.47
2019-05-22T10:23:23.142Z,6.53
2019-05-22T10:25:54.667Z,6.95
2019-05-22T10:28:26.427Z,6.75
2019-05-22T10:30:58.679Z,6.22
2019-05-22T10:33:30.498Z,7.10
2019-05-22T10:36:01.954Z,7.12
2019-05-22T10:38:33.535Z,7.40
2019-05-22T10:41:05.576Z,7.42
2019-05-22T10:43:38.085Z,6.87
2019-05-22T10:46:10.195Z,8.23
2019-05-22T10:48:43.320Z,7.70
2019-05-22T10:51:15.776Z,7.62
2019-05-22T10:53:50.988Z,8.65
2019-05-22T10:56:22.405Z,9.68
2019-05-22T10:58:54.227Z,10.32
2019-05-22T11:01:25.924Z,9.33
2019-05-22T11:03:57.990Z,8.30
2019-05-22T11:06:29.913Z,9.73
2019-05-22T11:09:01.497Z,8.90
2019-05-22T11:11:33.737Z,9.85
2019-05-22T11:14:09.283Z,8.63
2019-05-22T11:16:39.490Z,9.53
2019-05-22T11:19:11.323Z,7.65
2019-05-22T11:21:43.575Z,8.60
2019-05-22T11:24:15.594Z,8.30
2019-05-22T11:26:47.326Z,8.63
2019-05-22T11:29:18.755Z,9.30
2019-05-22T11:31:50.759Z,8.50
2019-05-22T11:34:22.759Z,8.45
2019-05-22T11:36:55.999Z,9.15
2019-05-22T11:39:38.624Z,9.83
2019-05-22T11:42:03.006Z,9.93
2019-05-22T11:44:34.552Z,9.60
2019-05-22T11:47:06.497Z,9.00
2019-05-22T11:49:38.963Z,8.70
2019-05-22T11:52:12.255Z,7.80
2019-05-22T11:54:45.894Z,9.00
2019-05-22T11:57:18.922Z,8.55
2019-05-22T11:59:50.373Z,9.20
2019-05-22T12:02:23.635Z,8.73
2019-05-22T12:04:55.015Z,8.08
2019-05-22T12:07:27.158Z,9.68
2019-05-22T12:09:59.273Z,9.90
2019-05-22T12:12:35.012Z,10.35
2019-05-22T12:15:07.285Z,10.80
2019-05-22T12:17:39.459Z,9.45
2019-05-22T12:20:13.326Z,9.58
2019-05-22T12:22:44.707Z,8.58
2019-05-22T12:25:19.067Z,8.60
2019-05-22T12:27:50.583Z,8.88
2019-05-22T12:30:24.009Z,9.55
2019-05-22T12:32:56.961Z,10.00
2019-05-22T12:35:29.365Z,10.58
2019-05-22T12:38:01.338Z,11.45
2019-05-22T12:40:35.992Z,12.53
2019-05-22T12:43:07.836Z,13.78
2019-05-22T12:45:39.384Z,14.18
2019-05-22T12:48:12.270Z,11.68
2019-05-22T12:50:45.772Z,15.63
2019-05-22T12:53:17.416Z,13.30
2019-05-22T12:55:49.164Z,12.78
2019-05-22T12:58:20.689Z,12.70
2019-05-22T13:00:54.525Z,12.05
2019-05-22T13:03:26.738Z,10.88
2019-05-22T13:05:58.595Z,13.50
2019-05-22T13:08:31.452Z,16.85
2019-05-22T13:11:05.489Z,16.30
2019-05-22T13:13:37.332Z,17.02
2019-05-22T13:16:09.806Z,17.95
2019-05-22T13:18:42.425Z,14.35
2019-05-22T13:21:18.423Z,13.30
2019-05-22T13:23:51.418Z,13.15
2019-05-22T13:26:25.439Z,12.37
2019-05-22T13:28:57.811Z,11.28
2019-05-22T13:31:29.920Z,12.18
2019-05-22T13:34:02.517Z,11.28
2019-05-22T13:36:34.803Z,17.25
2019-05-22T13:39:09.846Z,17.00
2019-05-22T13:41:41.604Z,18.12
2019-05-22T13:44:13.433Z,17.52
2019-05-22T13:46:46.054Z,14.95
2019-05-22T13:49:17.516Z,15.70
2019-05-22T13:51:49.451Z,14.33
2019-05-22T13:54:21.947Z,12.23
2019-05-22T13:56:53.292Z,9.05
2019-05-22T13:59:25.641Z,8.53
2019-05-22T14:01:57.923Z,9.10
2019-05-22T14:04:29.450Z,7.22
2019-05-22T14:07:01.419Z,5.58
2019-05-22T14:09:33.000Z,5.50
2019-05-22T14:12:06.271Z,5.72
2019-05-22T14:14:37.832Z,5.80
2019-05-22T14:17:09.569Z,6.47
2019-05-22T14:19:41.327Z,6.00
2019-05-22T14:22:12.869Z,6.30
2019-05-22T14:24:44.320Z,6.95
2019-05-22T14:27:16.281Z,6.58
2019-05-22T14:29:48.111Z,7.00
2019-05-22T14:32:20.179Z,7.78
2019-05-22T14:34:51.715Z,8.53
2019-05-22T14:37:24.404Z,8.53
2019-05-22T14:39:55.797Z,10.30
2019-05-22T14:42:27.663Z,13.05
2019-05-22T14:44:59.291Z,13.53
2019-05-22T14:47:31.001Z,15.72
2019-05-22T14:50:03.767Z,15.60
2019-05-22T14:52:35.672Z,13.60
2019-05-22T14:55:08.542Z,13.65
2019-05-22T14:57:40.985Z,11.38
2019-05-22T15:00:14.738Z,9.73
2019-05-22T15:02:46.320Z,9.35
2019-05-22T15:05:19.381Z,9.63
2019-05-22T15:07:50.787Z,9.38
2019-05-22T15:10:23.050Z,8.38
2019-05-22T15:12:54.709Z,8.65
2019-05-22T15:15:27.205Z,8.53
2019-05-22T15:17:59.268Z,8.93
2019-05-22T15:20:35.408Z,9.68
2019-05-22T15:23:07.705Z,9.15
2019-05-22T15:25:39.420Z,7.72
2019-05-22T15:28:12.458Z,8.43
2019-05-22T15:30:44.201Z,7.60
2019-05-22T15:33:16.694Z,7.20
2019-05-22T15:35:48.230Z,7.40
2019-05-22T15:38:21.569Z,6.60
2019-05-22T15:40:54.386Z,7.65
2019-05-22T15:43:27.671Z,7.58
2019-05-22T15:46:01.294Z,6.95
2019-05-22T15:48:34.697Z,6.58
2019-05-22T15:51:10.284Z,6.35
2019-05-22T15:53:43.252Z,7.10
2019-05-22T15:56:15.490Z,6.67
2019-05-22T15:58:50.464Z,6.70
2019-05-22T16:01:25.566Z,6.58
2019-05-22T16:03:58.028Z,6.33
2019-05-22T16:06:32.279Z,6.22
2019-05-22T16:09:06.506Z,6.42
2019-05-22T16:11:39.014Z,5.60
2019-05-22T16:14:10.915Z,6.42
2019-05-22T16:16:45.422Z,6.17
2019-05-22T16:19:17.059Z,6.35
2019-05-22T16:21:48.604Z,6.25
2019-05-22T16:24:20.932Z,6.25
2019-05-22T16:26:53.213Z,6.30
2019-05-22T16:29:25.571Z,6.25
2019-05-22T16:32:00.536Z,6.25
2019-05-22T16:34:32.228Z,7.03
2019-05-22T16:37:04.440Z,7.03
2019-05-22T16:39:39.590Z,7.08
2019-05-22T16:42:11.785Z,7.17
2019-05-22T16:44:44.433Z,7.75
2019-05-22T16:47:20.031Z,8.00
2019-05-22T16:49:53.731Z,7.78
2019-05-22T16:52:27.042Z,7.92
2019-05-22T16:54:58.791Z,7.97
2019-05-22T16:57:31.655Z,8.58
2019-05-22T17:00:03.738Z,8.03
2019-05-22T17:02:37.938Z,7.72
2019-05-22T17:05:12.335Z,7.75
2019-05-22T17:07:44.405Z,8.25
2019-05-22T17:10:17.030Z,7.30
2019-05-22T17:12:49.804Z,6.70
2019-05-22T17:15:21.905Z,6.78
2019-05-22T17:17:54.245Z,7.15
2019-05-22T17:20:28.222Z,7.70
2019-05-22T17:22:59.964Z,7.70
2019-05-22T17:25:31.537Z,8.18
2019-05-22T17:28:06.887Z,8.18
2019-05-22T17:30:40.104Z,7.80
2019-05-22T17:33:12.003Z,7.92
2019-05-22T17:35:44.769Z,8.68
2019-05-22T17:38:19.028Z,8.55
2019-05-22T17:40:51.330Z,8.55
2019-05-22T17:43:25.769Z,9.03
2019-05-22T17:45:57.799Z,12.30
2019-05-22T17:48:30.168Z,8.78
2019-05-22T17:51:05.214Z,9.10
2019-05-22T17:53:37.449Z,8.18
2019-05-22T17:56:09.235Z,8.50
2019-05-22T17:58:41.444Z,7.78
2019-05-22T18:01:13.557Z,8.20
2019-05-22T18:03:45.340Z,7.80
2019-05-22T18:06:17.394Z,7.67
2019-05-22T18:08:49.022Z,7.35
2019-05-22T18:11:20.755Z,7.42
2019-05-22T18:14:00.961Z,7.78
2019-05-22T18:16:32.807Z,8.10
2019-05-22T18:19:05.658Z,8.60
2019-05-22T18:21:38.642Z,8.48
2019-05-22T18:24:10.516Z,8.60
2019-05-22T18:26:42.296Z,8.58
2019-05-22T18:29:15.285Z,8.50
2019-05-22T18:31:47.425Z,8.10
2019-05-22T18:34:19.317Z,8.63
2019-05-22T18:36:51.294Z,8.38
2019-05-22T18:39:23.468Z,8.55
2019-05-22T18:41:55.099Z,8.13
2019-05-22T18:44:26.723Z,8.98
2019-05-22T18:46:59.852Z,8.05
2019-05-22T18:49:33.529Z,9.18
2019-05-22T18:52:06.240Z,7.70
2019-05-22T18:54:38.030Z,8.33
2019-05-22T18:57:09.802Z,8.20
2019-05-22T18:59:42.968Z,7.85
2019-05-22T19:02:14.879Z,8.45
2019-05-22T19:04:46.679Z,7.53
2019-05-22T19:07:18.373Z,7.90
2019-05-22T19:09:50.017Z,7.50
2019-05-22T19:12:21.715Z,15.53
2019-05-22T19:14:53.400Z,8.43
2019-05-22T19:17:33.255Z,8.35
2019-05-22T19:22:39.942Z,10.25
2019-05-22T19:25:13.648Z,7.42
2019-05-22T19:27:45.301Z,13.40
2019-05-22T19:30:19.779Z,7.72
2019-05-22T19:32:53.221Z,7.30
2019-05-22T19:35:24.982Z,8.35
2019-05-22T19:37:57.390Z,7.58
2019-05-22T19:40:29.490Z,7.42
2019-05-22T19:43:01.569Z,7.30
2019-05-22T19:45:33.532Z,7.20
2019-05-22T19:48:06.738Z,7.87
2019-05-22T19:50:39.433Z,8.08
2019-05-22T19:53:18.776Z,9.95
2019-05-22T19:55:47.184Z,10.43
2019-05-22T19:58:22.044Z,7.75
2019-05-22T20:00:52.815Z,8.05
2019-05-22T20:03:24.550Z,8.70
2019-05-22T20:05:57.021Z,8.63
2019-05-22T20:08:29.649Z,8.73
2019-05-22T20:11:01.511Z,8.68
2019-05-22T20:13:33.795Z,8.43
2019-05-22T20:16:06.057Z,7.80
2019-05-22T20:18:38.301Z,7.80
2019-05-22T20:21:10.591Z,8.80
2019-05-22T20:23:42.451Z,9.03
2019-05-22T20:26:14.144Z,8.90
2019-05-22T20:28:46.164Z,7.67
2019-05-22T20:31:17.938Z,7.87
2019-05-22T20:33:49.596Z,7.58
2019-05-22T20:36:21.720Z,7.30
2019-05-22T20:38:55.410Z,6.58
2019-05-22T20:41:27.144Z,6.22
2019-05-22T20:44:01.375Z,6.60
2019-05-22T20:46:37.629Z,6.62
2019-05-22T20:49:09.173Z,6.80
2019-05-22T20:51:41.462Z,12.35
2019-05-22T20:54:15.418Z,8.63
2019-05-22T20:56:48.316Z,7.42
2019-05-22T20:59:21.817Z,7.80
2019-05-22T21:01:54.354Z,7.10
2019-05-22T21:04:27.524Z,6.72
2019-05-22T21:07:02.129Z,7.00
2019-05-22T21:09:35.882Z,6.90
2019-05-22T21:12:08.563Z,6.75
2019-05-22T21:14:41.169Z,6.05
2019-05-22T21:17:14.794Z,7.15
2019-05-22T21:19:47.523Z,6.80
2019-05-22T21:22:20.715Z,6.20
2019-05-22T21:24:53.440Z,6.83
2019-05-22T21:27:25.026Z,6.83
2019-05-22T21:29:56.600Z,6.92
2019-05-22T21:32:28.898Z,6.60
2019-05-22T21:35:00.910Z,5.75
2019-05-22T21:37:32.810Z,6.10
2019-05-22T21:40:07.140Z,5.80
2019-05-22T21:42:41.442Z,6.37
2019-05-22T21:45:13.193Z,6.08
2019-05-22T21:47:46.552Z,6.25
2019-05-22T21:50:20.084Z,6.15
2019-05-22T21:52:52.952Z,6.03
2019-05-22T21:55:25.745Z,5.78
2019-05-22T21:57:57.685Z,6.40
2019-05-22T22:00:42.339Z,6.10
2019-05-22T22:03:16.767Z,6.25
2019-05-22T22:05:48.326Z,6.65
2019-05-22T22:08:19.950Z,6.87
2019-05-22T22:10:51.761Z,7.53
2019-05-22T22:13:24.039Z,6.85
2019-05-22T22:15:55.776Z,7.28
2019-05-22T22:18:27.689Z,7.65
2019-05-22T22:20:59.393Z,7.55
2019-05-22T22:23:31.018Z,7.58
2019-05-22T22:26:03.471Z,7.87
2019-05-22T22:28:36.029Z,7.75
2019-05-22T22:31:09.141Z,7.67
2019-05-22T22:33:42.570Z,7.30
2019-05-22T22:36:14.545Z,7.42
2019-05-22T22:38:47.102Z,7.40
2019-05-22T22:41:19.966Z,7.35
2019-05-22T22:43:52.958Z,7.92
2019-05-22T22:46:45.634Z,7.92
2019-05-22T22:49:18.934Z,7.65
2019-05-22T22:51:53.349Z,7.80
2019-05-22T22:54:26.903Z,7.80
2019-05-22T22:57:00.294Z,7.83
2019-05-22T22:59:32.332Z,8.60
2019-05-22T23:02:06.792Z,8.25
2019-05-22T23:04:39.056Z,8.43
2019-05-22T23:07:10.787Z,8.35
2019-05-22T23:09:44.426Z,9.20
2019-05-22T23:12:17.934Z,8.60
2019-05-22T23:14:52.777Z,8.90
2019-05-22T23:17:24.977Z,9.48
2019-05-22T23:19:55.326Z,9.30
2019-05-22T23:22:27.241Z,9.13
2019-05-22T23:25:00.246Z,9.35
2019-05-22T23:27:33.234Z,9.33
2019-05-22T23:30:09.318Z,10.43
2019-05-22T23:32:42.720Z,10.75
2019-05-22T23:35:14.426Z,11.25
2019-05-22T23:37:46.621Z,11.78
2019-05-22T23:40:21.305Z,12.37
2019-05-22T23:42:53.745Z,13.13
2019-05-22T23:45:25.786Z,13.05
2019-05-22T23:48:04.061Z,13.53
2019-05-22T23:50:38.492Z,13.93
2019-05-22T23:53:11.642Z,14.33
2019-05-22T23:55:45.820Z,14.28
2019-05-22T23:58:17.972Z,14.85
